sensor_id;sensor_type;location;lat;lon;timestamp;P1;durP1;ratioP1;P2;durP2;ratioP2
70667;SDS011;58242;51.250;-1.118;2022-09-01T00:01:49;4.03;;;2.00;;
70667;SDS011;58242;51.250;-1.118;2022-09-01T00:04:19;3.20;;;1.88;;
70667;SDS011;58242;51.250;-1.118;2022-09-01T00:06:49;4.90;;;1.80;;
70667;SDS011;58242;51.250;-1.118;2022-09-01T00:09:17;4.75;;;1.70;;
70667;SDS011;58242;51.250;-1.118;2022-09-01T00:11:44;3.97;;;1.87;;
70667;SDS011;58242;51.250;-1.118;2022-09-01T00:14:14;3.53;;;1.88;;
70667;SDS011;58242;51.250;-1.118;2022-09-01T00:16:40;1.90;;;1.50;;
70667;SDS011;58242;51.250;-1.118;2022-09-01T00:19:05;5.38;;;1.63;;
70667;SDS011;58242;51.250;-1.118;2022-09-01T00:21:38;3.78;;;1.88;;
70667;SDS011;58242;51.250;-1.118;2022-09-01T00:24:05;2.28;;;1.67;;
70667;SDS011;58242;51.250;-1.118;2022-09-01T00:26:31;6.03;;;1.95;;
70667;SDS011;58242;51.250;-1.118;2022-09-01T00:28:56;3.80;;;1.90;;
70667;SDS011;58242;51.250;-1.118;2022-09-01T00:31:22;3.63;;;1.67;;
70667;SDS011;58242;51.250;-1.118;2022-09-01T00:33:48;2.05;;;1.30;;
70667;SDS011;58242;51.250;-1.118;2022-09-01T00:36:14;2.03;;;1.67;;
70667;SDS011;58242;51.250;-1.118;2022-09-01T00:38:41;2.85;;;1.23;;
70667;SDS011;58242;51.250;-1.118;2022-09-01T00:41:07;2.75;;;1.85;;
70667;SDS011;58242;51.250;-1.118;2022-09-01T00:46:10;1.50;;;1.40;;
70667;SDS011;58242;51.250;-1.118;2022-09-01T00:48:46;2.45;;;1.60;;
70667;SDS011;58242;51.250;-1.118;2022-09-01T00:51:17;3.45;;;1.48;;
70667;SDS011;58242;51.250;-1.118;2022-09-01T00:53:42;2.40;;;1.40;;
70667;SDS011;58242;51.250;-1.118;2022-09-01T00:56:10;3.42;;;1.73;;
70667;SDS011;58242;51.250;-1.118;2022-09-01T00:58:36;2.20;;;2.00;;
70667;SDS011;58242;51.250;-1.118;2022-09-01T01:01:03;2.83;;;1.83;;
70667;SDS011;58242;51.250;-1.118;2022-09-01T01:03:31;3.33;;;1.88;;
70667;SDS011;58242;51.250;-1.118;2022-09-01T01:05:57;2.15;;;1.60;;
70667;SDS011;58242;51.250;-1.118;2022-09-01T01:08:28;3.22;;;1.70;;
70667;SDS011;58242;51.250;-1.118;2022-09-01T01:10:58;3.97;;;1.85;;
70667;SDS011;58242;51.250;-1.118;2022-09-01T01:13:27;7.18;;;1.92;;
70667;SDS011;58242;51.250;-1.118;2022-09-01T01:15:56;2.70;;;1.90;;
70667;SDS011;58242;51.250;-1.118;2022-09-01T01:18:23;2.55;;;1.75;;
70667;SDS011;58242;51.250;-1.118;2022-09-01T01:20:55;3.58;;;1.65;;
70667;SDS011;58242;51.250;-1.118;2022-09-01T01:24:32;3.13;;;1.85;;
70667;SDS011;58242;51.250;-1.118;2022-09-01T01:26:42;2.60;;;1.50;;
70667;SDS011;58242;51.250;-1.118;2022-09-01T01:29:07;2.60;;;1.70;;
70667;SDS011;58242;51.250;-1.118;2022-09-01T01:31:33;2.53;;;1.90;;
70667;SDS011;58242;51.250;-1.118;2022-09-01T01:33:59;3.75;;;2.05;;
70667;SDS011;58242;51.250;-1.118;2022-09-01T01:36:28;2.08;;;1.50;;
70667;SDS011;58242;51.250;-1.118;2022-09-01T01:39:00;1.92;;;1.83;;
70667;SDS011;58242;51.250;-1.118;2022-09-01T01:41:30;2.92;;;1.70;;
70667;SDS011;58242;51.250;-1.118;2022-09-01T01:43:58;2.63;;;1.88;;
70667;SDS011;58242;51.250;-1.118;2022-09-01T01:46:28;1.95;;;1.85;;
70667;SDS011;58242;51.250;-1.118;2022-09-01T01:48:55;2.25;;;1.98;;
70667;SDS011;58242;51.250;-1.118;2022-09-01T01:51:21;3.90;;;2.30;;
70667;SDS011;58242;51.250;-1.118;2022-09-01T01:53:52;2.00;;;1.90;;
70667;SDS011;58242;51.250;-1.118;2022-09-01T01:56:19;2.17;;;2.03;;
70667;SDS011;58242;51.250;-1.118;2022-09-01T01:58:49;3.20;;;2.13;;
70667;SDS011;58242;51.250;-1.118;2022-09-01T02:01:18;3.22;;;1.85;;
70667;SDS011;58242;51.250;-1.118;2022-09-01T02:03:43;2.35;;;1.90;;
70667;SDS011;58242;51.250;-1.118;2022-09-01T02:06:09;1.95;;;1.85;;
70667;SDS011;58242;51.250;-1.118;2022-09-01T02:08:36;4.82;;;2.33;;
70667;SDS011;58242;51.250;-1.118;2022-09-01T02:11:03;2.58;;;1.83;;
70667;SDS011;58242;51.250;-1.118;2022-09-01T02:13:30;5.68;;;2.40;;
70667;SDS011;58242;51.250;-1.118;2022-09-01T02:15:57;3.47;;;2.28;;
70667;SDS011;58242;51.250;-1.118;2022-09-01T02:18:32;2.33;;;1.70;;
70667;SDS011;58242;51.250;-1.118;2022-09-01T02:21:00;6.10;;;2.00;;
70667;SDS011;58242;51.250;-1.118;2022-09-01T02:23:27;4.57;;;2.10;;
70667;SDS011;58242;51.250;-1.118;2022-09-01T02:25:55;2.65;;;2.30;;
70667;SDS011;58242;51.250;-1.118;2022-09-01T02:28:25;3.17;;;2.72;;
70667;SDS011;58242;51.250;-1.118;2022-09-01T02:30:52;2.80;;;1.95;;
70667;SDS011;58242;51.250;-1.118;2022-09-01T02:33:19;4.93;;;2.20;;
70667;SDS011;58242;51.250;-1.118;2022-09-01T02:35:50;2.67;;;1.95;;
70667;SDS011;58242;51.250;-1.118;2022-09-01T02:38:18;3.55;;;2.22;;
70667;SDS011;58242;51.250;-1.118;2022-09-01T02:40:45;6.78;;;2.70;;
70667;SDS011;58242;51.250;-1.118;2022-09-01T02:43:11;3.38;;;2.03;;
70667;SDS011;58242;51.250;-1.118;2022-09-01T02:48:08;2.65;;;2.20;;
70667;SDS011;58242;51.250;-1.118;2022-09-01T02:50:38;6.88;;;2.58;;
70667;SDS011;58242;51.250;-1.118;2022-09-01T02:53:05;2.78;;;2.10;;
70667;SDS011;58242;51.250;-1.118;2022-09-01T02:55:34;2.15;;;1.92;;
70667;SDS011;58242;51.250;-1.118;2022-09-01T02:58:01;6.25;;;2.40;;
70667;SDS011;58242;51.250;-1.118;2022-09-01T03:00:26;3.58;;;2.50;;
70667;SDS011;58242;51.250;-1.118;2022-09-01T03:03:01;3.78;;;2.53;;
70667;SDS011;58242;51.250;-1.118;2022-09-01T03:05:29;4.72;;;2.35;;
70667;SDS011;58242;51.250;-1.118;2022-09-01T03:07:57;3.38;;;2.40;;
70667;SDS011;58242;51.250;-1.118;2022-09-01T03:10:27;3.17;;;2.25;;
70667;SDS011;58242;51.250;-1.118;2022-09-01T03:13:04;2.88;;;2.35;;
70667;SDS011;58242;51.250;-1.118;2022-09-01T03:15:32;3.75;;;2.00;;
70667;SDS011;58242;51.250;-1.118;2022-09-01T03:17:59;3.47;;;2.35;;
70667;SDS011;58242;51.250;-1.118;2022-09-01T03:20:25;6.40;;;2.90;;
70667;SDS011;58242;51.250;-1.118;2022-09-01T03:22:52;3.55;;;2.42;;
70667;SDS011;58242;51.250;-1.118;2022-09-01T03:25:17;3.63;;;2.38;;
70667;SDS011;58242;51.250;-1.118;2022-09-01T03:27:43;3.75;;;2.60;;
70667;SDS011;58242;51.250;-1.118;2022-09-01T03:30:09;3.80;;;2.33;;
70667;SDS011;58242;51.250;-1.118;2022-09-01T03:32:35;4.65;;;2.63;;
70667;SDS011;58242;51.250;-1.118;2022-09-01T03:35:01;2.88;;;2.63;;
70667;SDS011;58242;51.250;-1.118;2022-09-01T03:37:27;8.63;;;2.85;;
70667;SDS011;58242;51.250;-1.118;2022-09-01T03:39:53;3.78;;;2.42;;
70667;SDS011;58242;51.250;-1.118;2022-09-01T03:42:19;2.78;;;2.00;;
70667;SDS011;58242;51.250;-1.118;2022-09-01T03:44:50;5.38;;;2.40;;
70667;SDS011;58242;51.250;-1.118;2022-09-01T03:47:17;2.67;;;2.30;;
70667;SDS011;58242;51.250;-1.118;2022-09-01T03:49:45;4.18;;;2.53;;
70667;SDS011;58242;51.250;-1.118;2022-09-01T03:52:13;3.97;;;2.40;;
70667;SDS011;58242;51.250;-1.118;2022-09-01T03:54:39;4.30;;;2.38;;
70667;SDS011;58242;51.250;-1.118;2022-09-01T03:57:05;3.33;;;2.67;;
70667;SDS011;58242;51.250;-1.118;2022-09-01T03:59:34;9.55;;;2.92;;
70667;SDS011;58242;51.250;-1.118;2022-09-01T04:01:59;4.20;;;3.15;;
70667;SDS011;58242;51.250;-1.118;2022-09-01T04:04:26;3.55;;;2.75;;
70667;SDS011;58242;51.250;-1.118;2022-09-01T04:06:55;4.90;;;2.70;;
70667;SDS011;58242;51.250;-1.118;2022-09-01T04:09:20;4.55;;;2.85;;
70667;SDS011;58242;51.250;-1.118;2022-09-01T04:11:46;8.07;;;3.25;;
70667;SDS011;58242;51.250;-1.118;2022-09-01T04:14:12;5.88;;;3.03;;
70667;SDS011;58242;51.250;-1.118;2022-09-01T04:16:38;5.63;;;2.97;;
70667;SDS011;58242;51.250;-1.118;2022-09-01T04:19:22;3.53;;;2.60;;
70667;SDS011;58242;51.250;-1.118;2022-09-01T04:21:51;3.00;;;2.70;;
70667;SDS011;58242;51.250;-1.118;2022-09-01T04:24:18;5.07;;;2.83;;
70667;SDS011;58242;51.250;-1.118;2022-09-01T04:26:45;3.65;;;3.15;;
70667;SDS011;58242;51.250;-1.118;2022-09-01T04:29:13;6.20;;;3.05;;
70667;SDS011;58242;51.250;-1.118;2022-09-01T04:31:39;5.10;;;3.05;;
70667;SDS011;58242;51.250;-1.118;2022-09-01T04:34:06;6.80;;;2.85;;
70667;SDS011;58242;51.250;-1.118;2022-09-01T04:36:37;5.03;;;2.85;;
70667;SDS011;58242;51.250;-1.118;2022-09-01T04:39:09;4.05;;;2.60;;
70667;SDS011;58242;51.250;-1.118;2022-09-01T04:41:35;8.63;;;3.20;;
70667;SDS011;58242;51.250;-1.118;2022-09-01T04:44:03;3.60;;;3.15;;
70667;SDS011;58242;51.250;-1.118;2022-09-01T04:46:31;5.07;;;2.83;;
70667;SDS011;58242;51.250;-1.118;2022-09-01T04:51:27;4.37;;;2.50;;
70667;SDS011;58242;51.250;-1.118;2022-09-01T04:53:56;3.50;;;2.80;;
70667;SDS011;58242;51.250;-1.118;2022-09-01T04:56:23;4.22;;;3.00;;
70667;SDS011;58242;51.250;-1.118;2022-09-01T04:58:50;5.97;;;2.90;;
70667;SDS011;58242;51.250;-1.118;2022-09-01T05:01:19;5.22;;;3.28;;
70667;SDS011;58242;51.250;-1.118;2022-09-01T05:03:48;4.82;;;2.92;;
70667;SDS011;58242;51.250;-1.118;2022-09-01T05:06:26;4.53;;;3.08;;
70667;SDS011;58242;51.250;-1.118;2022-09-01T05:08:52;5.38;;;2.90;;
70667;SDS011;58242;51.250;-1.118;2022-09-01T05:11:20;7.38;;;3.53;;
70667;SDS011;58242;51.250;-1.118;2022-09-01T05:13:48;4.07;;;2.92;;
70667;SDS011;58242;51.250;-1.118;2022-09-01T05:16:15;3.95;;;3.00;;
70667;SDS011;58242;51.250;-1.118;2022-09-01T05:18:46;4.25;;;3.13;;
70667;SDS011;58242;51.250;-1.118;2022-09-01T05:21:14;3.13;;;2.63;;
70667;SDS011;58242;51.250;-1.118;2022-09-01T05:23:42;6.35;;;3.30;;
70667;SDS011;58242;51.250;-1.118;2022-09-01T05:26:13;6.90;;;3.03;;
70667;SDS011;58242;51.250;-1.118;2022-09-01T05:28:42;4.90;;;3.17;;
70667;SDS011;58242;51.250;-1.118;2022-09-01T05:31:09;3.67;;;3.28;;
70667;SDS011;58242;51.250;-1.118;2022-09-01T05:33:34;3.50;;;2.72;;
70667;SDS011;58242;51.250;-1.118;2022-09-01T05:36:01;5.10;;;2.72;;
70667;SDS011;58242;51.250;-1.118;2022-09-01T05:38:32;6.00;;;3.05;;
70667;SDS011;58242;51.250;-1.118;2022-09-01T05:40:59;3.75;;;2.97;;
70667;SDS011;58242;51.250;-1.118;2022-09-01T05:43:28;3.38;;;2.72;;
70667;SDS011;58242;51.250;-1.118;2022-09-01T05:45:55;3.60;;;3.08;;
70667;SDS011;58242;51.250;-1.118;2022-09-01T05:48:21;5.65;;;3.40;;
70667;SDS011;58242;51.250;-1.118;2022-09-01T05:50:48;4.97;;;3.17;;
70667;SDS011;58242;51.250;-1.118;2022-09-01T05:53:20;8.38;;;2.95;;
70667;SDS011;58242;51.250;-1.118;2022-09-01T05:55:49;7.53;;;3.47;;
70667;SDS011;58242;51.250;-1.118;2022-09-01T05:58:21;7.15;;;3.95;;
70667;SDS011;58242;51.250;-1.118;2022-09-01T06:00:49;5.35;;;3.40;;
70667;SDS011;58242;51.250;-1.118;2022-09-01T06:03:17;5.75;;;2.97;;
70667;SDS011;58242;51.250;-1.118;2022-09-01T06:05:43;3.10;;;2.90;;
70667;SDS011;58242;51.250;-1.118;2022-09-01T06:10:39;3.92;;;3.00;;
70667;SDS011;58242;51.250;-1.118;2022-09-01T06:13:06;4.85;;;2.85;;
70667;SDS011;58242;51.250;-1.118;2022-09-01T06:15:33;3.20;;;2.92;;
70667;SDS011;58242;51.250;-1.118;2022-09-01T06:18:03;6.13;;;3.25;;
70667;SDS011;58242;51.250;-1.118;2022-09-01T06:20:30;3.45;;;2.55;;
70667;SDS011;58242;51.250;-1.118;2022-09-01T06:22:55;5.00;;;3.20;;
70667;SDS011;58242;51.250;-1.118;2022-09-01T06:25:21;7.38;;;2.72;;
70667;SDS011;58242;51.250;-1.118;2022-09-01T06:27:46;6.47;;;3.30;;
70667;SDS011;58242;51.250;-1.118;2022-09-01T06:30:13;5.30;;;3.30;;
70667;SDS011;58242;51.250;-1.118;2022-09-01T06:32:42;7.20;;;3.70;;
70667;SDS011;58242;51.250;-1.118;2022-09-01T06:35:14;6.85;;;3.50;;
70667;SDS011;58242;51.250;-1.118;2022-09-01T06:37:42;6.97;;;3.35;;
70667;SDS011;58242;51.250;-1.118;2022-09-01T06:40:09;6.15;;;3.60;;
70667;SDS011;58242;51.250;-1.118;2022-09-01T06:42:41;9.98;;;3.88;;
70667;SDS011;58242;51.250;-1.118;2022-09-01T06:45:12;5.97;;;3.78;;
70667;SDS011;58242;51.250;-1.118;2022-09-01T06:47:39;9.27;;;3.50;;
70667;SDS011;58242;51.250;-1.118;2022-09-01T06:50:08;8.93;;;4.20;;
70667;SDS011;58242;51.250;-1.118;2022-09-01T06:52:35;3.55;;;3.25;;
70667;SDS011;58242;51.250;-1.118;2022-09-01T06:55:00;4.85;;;3.80;;
70667;SDS011;58242;51.250;-1.118;2022-09-01T06:57:25;5.90;;;3.63;;
70667;SDS011;58242;51.250;-1.118;2022-09-01T06:59:51;5.15;;;3.42;;
70667;SDS011;58242;51.250;-1.118;2022-09-01T07:02:18;7.22;;;3.97;;
70667;SDS011;58242;51.250;-1.118;2022-09-01T07:04:44;6.63;;;3.60;;
70667;SDS011;58242;51.250;-1.118;2022-09-01T07:07:10;8.20;;;3.60;;
70667;SDS011;58242;51.250;-1.118;2022-09-01T07:09:37;6.78;;;3.67;;
70667;SDS011;58242;51.250;-1.118;2022-09-01T07:12:04;4.25;;;3.25;;
70667;SDS011;58242;51.250;-1.118;2022-09-01T07:14:29;8.63;;;3.55;;
70667;SDS011;58242;51.250;-1.118;2022-09-01T07:16:55;7.13;;;3.58;;
70667;SDS011;58242;51.250;-1.118;2022-09-01T07:19:22;5.78;;;3.08;;
70667;SDS011;58242;51.250;-1.118;2022-09-01T07:21:47;6.65;;;3.33;;
70667;SDS011;58242;51.250;-1.118;2022-09-01T07:24:13;5.22;;;2.70;;
70667;SDS011;58242;51.250;-1.118;2022-09-01T07:26:42;3.63;;;2.67;;
70667;SDS011;58242;51.250;-1.118;2022-09-01T07:29:08;3.63;;;2.70;;
70667;SDS011;58242;51.250;-1.118;2022-09-01T07:31:38;5.10;;;2.92;;
70667;SDS011;58242;51.250;-1.118;2022-09-01T07:34:08;6.95;;;3.15;;
70667;SDS011;58242;51.250;-1.118;2022-09-01T07:39:02;4.07;;;2.95;;
70667;SDS011;58242;51.250;-1.118;2022-09-01T07:41:28;4.13;;;2.40;;
70667;SDS011;58242;51.250;-1.118;2022-09-01T07:43:54;4.40;;;2.78;;
70667;SDS011;58242;51.250;-1.118;2022-09-01T07:46:21;6.25;;;2.97;;
70667;SDS011;58242;51.250;-1.118;2022-09-01T07:48:49;6.22;;;3.17;;
70667;SDS011;58242;51.250;-1.118;2022-09-01T07:51:18;5.65;;;3.05;;
70667;SDS011;58242;51.250;-1.118;2022-09-01T07:53:45;6.05;;;2.88;;
70667;SDS011;58242;51.250;-1.118;2022-09-01T07:56:15;4.43;;;2.90;;
70667;SDS011;58242;51.250;-1.118;2022-09-01T08:01:10;5.75;;;2.75;;
70667;SDS011;58242;51.250;-1.118;2022-09-01T08:03:43;5.45;;;2.10;;
70667;SDS011;58242;51.250;-1.118;2022-09-01T08:06:14;2.58;;;2.20;;
70667;SDS011;58242;51.250;-1.118;2022-09-01T08:08:45;4.68;;;2.70;;
70667;SDS011;58242;51.250;-1.118;2022-09-01T08:11:15;6.10;;;2.45;;
70667;SDS011;58242;51.250;-1.118;2022-09-01T08:13:53;3.53;;;2.25;;
70667;SDS011;58242;51.250;-1.118;2022-09-01T08:16:19;2.83;;;2.22;;
70667;SDS011;58242;51.250;-1.118;2022-09-01T08:18:45;5.20;;;2.78;;
70667;SDS011;58242;51.250;-1.118;2022-09-01T08:21:12;2.80;;;2.03;;
70667;SDS011;58242;51.250;-1.118;2022-09-01T08:23:38;4.88;;;2.63;;
70667;SDS011;58242;51.250;-1.118;2022-09-01T08:26:06;4.07;;;2.75;;
70667;SDS011;58242;51.250;-1.118;2022-09-01T08:28:33;3.42;;;2.53;;
70667;SDS011;58242;51.250;-1.118;2022-09-01T08:30:59;7.18;;;2.40;;
70667;SDS011;58242;51.250;-1.118;2022-09-01T08:33:25;3.05;;;2.42;;
70667;SDS011;58242;51.250;-1.118;2022-09-01T08:35:51;7.95;;;2.97;;
70667;SDS011;58242;51.250;-1.118;2022-09-01T08:38:17;4.80;;;2.30;;
70667;SDS011;58242;51.250;-1.118;2022-09-01T08:40:48;3.65;;;2.28;;
70667;SDS011;58242;51.250;-1.118;2022-09-01T08:46:27;4.90;;;2.33;;
70667;SDS011;58242;51.250;-1.118;2022-09-01T08:48:56;4.75;;;2.25;;
70667;SDS011;58242;51.250;-1.118;2022-09-01T08:51:31;4.38;;;2.33;;
70667;SDS011;58242;51.250;-1.118;2022-09-01T08:56:51;3.95;;;2.72;;
70667;SDS011;58242;51.250;-1.118;2022-09-01T08:59:23;5.80;;;3.22;;
70667;SDS011;58242;51.250;-1.118;2022-09-01T09:01:54;4.93;;;2.80;;
70667;SDS011;58242;51.250;-1.118;2022-09-01T09:07:38;4.28;;;2.38;;
70667;SDS011;58242;51.250;-1.118;2022-09-01T09:10:09;6.43;;;2.60;;
70667;SDS011;58242;51.250;-1.118;2022-09-01T09:16:02;3.77;;;2.40;;
70667;SDS011;58242;51.250;-1.118;2022-09-01T09:18:28;9.30;;;2.95;;
70667;SDS011;58242;51.250;-1.118;2022-09-01T09:21:31;3.50;;;2.40;;
70667;SDS011;58242;51.250;-1.118;2022-09-01T09:26:47;4.25;;;2.70;;
70667;SDS011;58242;51.250;-1.118;2022-09-01T09:29:17;6.55;;;2.13;;
70667;SDS011;58242;51.250;-1.118;2022-09-01T09:31:44;9.77;;;2.65;;
70667;SDS011;58242;51.250;-1.118;2022-09-01T09:34:55;2.97;;;2.40;;
70667;SDS011;58242;51.250;-1.118;2022-09-01T09:37:16;5.15;;;2.80;;
70667;SDS011;58242;51.250;-1.118;2022-09-01T09:39:41;7.95;;;3.40;;
70667;SDS011;58242;51.250;-1.118;2022-09-01T09:42:12;7.80;;;3.10;;
70667;SDS011;58242;51.250;-1.118;2022-09-01T09:44:47;6.15;;;2.67;;
70667;SDS011;58242;51.250;-1.118;2022-09-01T09:47:33;3.90;;;2.30;;
70667;SDS011;58242;51.250;-1.118;2022-09-01T09:50:18;3.88;;;2.50;;
70667;SDS011;58242;51.250;-1.118;2022-09-01T09:52:47;6.95;;;2.72;;
70667;SDS011;58242;51.250;-1.118;2022-09-01T09:55:29;4.90;;;2.10;;
70667;SDS011;58242;51.250;-1.118;2022-09-01T09:57:56;5.25;;;2.38;;
70667;SDS011;58242;51.250;-1.118;2022-09-01T10:00:25;5.80;;;2.70;;
70667;SDS011;58242;51.250;-1.118;2022-09-01T10:03:02;4.68;;;2.72;;
70667;SDS011;58242;51.250;-1.118;2022-09-01T10:08:09;4.45;;;2.63;;
70667;SDS011;58242;51.250;-1.118;2022-09-01T10:13:10;4.05;;;2.35;;
70667;SDS011;58242;51.250;-1.118;2022-09-01T10:15:39;3.05;;;2.40;;
70667;SDS011;58242;51.250;-1.118;2022-09-01T10:18:13;3.72;;;2.33;;
70667;SDS011;58242;51.250;-1.118;2022-09-01T10:23:40;4.45;;;2.55;;
70667;SDS011;58242;51.250;-1.118;2022-09-01T10:26:11;8.73;;;2.70;;
70667;SDS011;58242;51.250;-1.118;2022-09-01T10:31:38;3.40;;;2.58;;
70667;SDS011;58242;51.250;-1.118;2022-09-01T10:34:05;3.47;;;2.30;;
70667;SDS011;58242;51.250;-1.118;2022-09-01T10:36:35;6.47;;;2.53;;
70667;SDS011;58242;51.250;-1.118;2022-09-01T10:39:02;2.65;;;2.20;;
70667;SDS011;58242;51.250;-1.118;2022-09-01T10:44:24;5.15;;;2.50;;
70667;SDS011;58242;51.250;-1.118;2022-09-01T10:46:54;5.40;;;2.70;;
70667;SDS011;58242;51.250;-1.118;2022-09-01T10:51:53;3.58;;;2.17;;
70667;SDS011;58242;51.250;-1.118;2022-09-01T11:08:22;5.60;;;2.72;;
70667;SDS011;58242;51.250;-1.118;2022-09-01T11:10:59;4.40;;;2.45;;
70667;SDS011;58242;51.250;-1.118;2022-09-01T11:27:03;3.13;;;2.20;;
70667;SDS011;58242;51.250;-1.118;2022-09-01T11:29:53;3.42;;;2.15;;
70667;SDS011;58242;51.250;-1.118;2022-09-01T11:32:21;3.65;;;2.10;;
70667;SDS011;58242;51.250;-1.118;2022-09-01T11:34:51;2.97;;;2.30;;
70667;SDS011;58242;51.250;-1.118;2022-09-01T11:37:21;5.95;;;2.40;;
70667;SDS011;58242;51.250;-1.118;2022-09-01T11:39:50;6.20;;;2.70;;
70667;SDS011;58242;51.250;-1.118;2022-09-01T11:42:19;2.13;;;1.92;;
70667;SDS011;58242;51.250;-1.118;2022-09-01T11:44:52;4.70;;;2.47;;
70667;SDS011;58242;51.250;-1.118;2022-09-01T11:47:25;5.85;;;2.58;;
70667;SDS011;58242;51.250;-1.118;2022-09-01T11:50:06;4.82;;;2.33;;
70667;SDS011;58242;51.250;-1.118;2022-09-01T11:52:41;6.38;;;2.58;;
70667;SDS011;58242;51.250;-1.118;2022-09-01T11:55:28;3.42;;;2.15;;
70667;SDS011;58242;51.250;-1.118;2022-09-01T11:57:56;5.25;;;2.00;;
70667;SDS011;58242;51.250;-1.118;2022-09-01T12:00:30;4.10;;;2.10;;
70667;SDS011;58242;51.250;-1.118;2022-09-01T12:02:57;5.03;;;2.60;;
70667;SDS011;58242;51.250;-1.118;2022-09-01T12:07:52;3.15;;;2.50;;
70667;SDS011;58242;51.250;-1.118;2022-09-01T12:10:19;4.47;;;2.40;;
70667;SDS011;58242;51.250;-1.118;2022-09-01T12:15:32;3.72;;;2.58;;
70667;SDS011;58242;51.250;-1.118;2022-09-01T12:20:35;5.78;;;2.97;;
70667;SDS011;58242;51.250;-1.118;2022-09-01T12:23:27;6.55;;;2.97;;
70667;SDS011;58242;51.250;-1.118;2022-09-01T12:25:52;4.07;;;2.45;;
70667;SDS011;58242;51.250;-1.118;2022-09-01T12:28:20;3.45;;;2.30;;
70667;SDS011;58242;51.250;-1.118;2022-09-01T12:30:47;2.20;;;1.92;;
70667;SDS011;58242;51.250;-1.118;2022-09-01T12:33:13;2.83;;;2.50;;
70667;SDS011;58242;51.250;-1.118;2022-09-01T12:35:42;5.03;;;2.50;;
70667;SDS011;58242;51.250;-1.118;2022-09-01T12:38:20;4.13;;;2.47;;
70667;SDS011;58242;51.250;-1.118;2022-09-01T12:40:53;2.50;;;2.28;;
70667;SDS011;58242;51.250;-1.118;2022-09-01T12:46:38;5.53;;;2.75;;
70667;SDS011;58242;51.250;-1.118;2022-09-01T12:49:17;3.38;;;2.53;;
70667;SDS011;58242;51.250;-1.118;2022-09-01T12:51:44;2.50;;;2.25;;
70667;SDS011;58242;51.250;-1.118;2022-09-01T12:54:12;5.43;;;3.17;;
70667;SDS011;58242;51.250;-1.118;2022-09-01T12:56:37;5.30;;;3.55;;
70667;SDS011;58242;51.250;-1.118;2022-09-01T13:01:36;3.28;;;2.53;;
70667;SDS011;58242;51.250;-1.118;2022-09-01T13:06:47;2.38;;;1.95;;
70667;SDS011;58242;51.250;-1.118;2022-09-01T13:09:13;3.95;;;2.60;;
70667;SDS011;58242;51.250;-1.118;2022-09-01T13:11:39;4.15;;;2.78;;
70667;SDS011;58242;51.250;-1.118;2022-09-01T13:14:06;4.32;;;2.70;;
70667;SDS011;58242;51.250;-1.118;2022-09-01T13:16:33;3.70;;;2.67;;
70667;SDS011;58242;51.250;-1.118;2022-09-01T13:18:59;6.78;;;2.45;;
70667;SDS011;58242;51.250;-1.118;2022-09-01T13:21:25;4.13;;;2.83;;
70667;SDS011;58242;51.250;-1.118;2022-09-01T13:23:51;1.95;;;1.83;;
70667;SDS011;58242;51.250;-1.118;2022-09-01T13:26:17;3.05;;;2.80;;
70667;SDS011;58242;51.250;-1.118;2022-09-01T13:28:43;3.88;;;2.60;;
70667;SDS011;58242;51.250;-1.118;2022-09-01T13:31:09;3.08;;;2.65;;
70667;SDS011;58242;51.250;-1.118;2022-09-01T13:33:36;3.58;;;2.35;;
70667;SDS011;58242;51.250;-1.118;2022-09-01T13:36:02;2.30;;;1.98;;
70667;SDS011;58242;51.250;-1.118;2022-09-01T13:38:28;2.83;;;2.58;;
70667;SDS011;58242;51.250;-1.118;2022-09-01T13:40:56;3.45;;;2.88;;
70667;SDS011;58242;51.250;-1.118;2022-09-01T13:43:22;2.40;;;2.20;;
70667;SDS011;58242;51.250;-1.118;2022-09-01T13:45:49;2.97;;;2.72;;
70667;SDS011;58242;51.250;-1.118;2022-09-01T13:48:15;2.65;;;2.45;;
70667;SDS011;58242;51.250;-1.118;2022-09-01T13:50:41;3.05;;;2.60;;
70667;SDS011;58242;51.250;-1.118;2022-09-01T13:53:08;2.63;;;2.53;;
70667;SDS011;58242;51.250;-1.118;2022-09-01T13:55:34;2.85;;;2.55;;
70667;SDS011;58242;51.250;-1.118;2022-09-01T13:58:02;2.65;;;2.38;;
70667;SDS011;58242;51.250;-1.118;2022-09-01T14:00:29;5.60;;;2.97;;
70667;SDS011;58242;51.250;-1.118;2022-09-01T14:02:58;2.53;;;2.20;;
70667;SDS011;58242;51.250;-1.118;2022-09-01T14:05:28;2.60;;;2.10;;
70667;SDS011;58242;51.250;-1.118;2022-09-01T14:07:56;2.30;;;2.17;;
70667;SDS011;58242;51.250;-1.118;2022-09-01T14:10:23;2.80;;;2.42;;
70667;SDS011;58242;51.250;-1.118;2022-09-01T14:12:53;2.38;;;2.10;;
70667;SDS011;58242;51.250;-1.118;2022-09-01T14:15:19;3.83;;;2.75;;
70667;SDS011;58242;51.250;-1.118;2022-09-01T14:17:46;2.50;;;2.03;;
70667;SDS011;58242;51.250;-1.118;2022-09-01T14:20:18;2.30;;;2.10;;
70667;SDS011;58242;51.250;-1.118;2022-09-01T14:22:45;3.20;;;1.98;;
70667;SDS011;58242;51.250;-1.118;2022-09-01T14:25:12;2.50;;;1.98;;
70667;SDS011;58242;51.250;-1.118;2022-09-01T14:27:38;3.22;;;2.00;;
70667;SDS011;58242;51.250;-1.118;2022-09-01T14:30:04;2.67;;;1.90;;
70667;SDS011;58242;51.250;-1.118;2022-09-01T14:32:31;2.28;;;2.10;;
70667;SDS011;58242;51.250;-1.118;2022-09-01T14:34:56;4.95;;;2.67;;
70667;SDS011;58242;51.250;-1.118;2022-09-01T14:37:23;2.97;;;2.20;;
70667;SDS011;58242;51.250;-1.118;2022-09-01T14:39:49;3.22;;;2.20;;
70667;SDS011;58242;51.250;-1.118;2022-09-01T14:42:16;4.65;;;2.33;;
70667;SDS011;58242;51.250;-1.118;2022-09-01T14:44:42;3.78;;;2.40;;
70667;SDS011;58242;51.250;-1.118;2022-09-01T14:47:08;3.15;;;2.28;;
70667;SDS011;58242;51.250;-1.118;2022-09-01T14:49:33;4.30;;;2.30;;
70667;SDS011;58242;51.250;-1.118;2022-09-01T14:52:01;2.75;;;2.40;;
70667;SDS011;58242;51.250;-1.118;2022-09-01T14:54:30;2.80;;;1.90;;
70667;SDS011;58242;51.250;-1.118;2022-09-01T14:56:56;2.88;;;2.00;;
70667;SDS011;58242;51.250;-1.118;2022-09-01T14:59:22;2.40;;;2.17;;
70667;SDS011;58242;51.250;-1.118;2022-09-01T15:01:47;3.80;;;2.10;;
70667;SDS011;58242;51.250;-1.118;2022-09-01T15:04:12;5.22;;;2.60;;
70667;SDS011;58242;51.250;-1.118;2022-09-01T15:06:38;2.38;;;2.05;;
70667;SDS011;58242;51.250;-1.118;2022-09-01T15:09:03;2.70;;;2.08;;
70667;SDS011;58242;51.250;-1.118;2022-09-01T15:11:29;2.15;;;1.98;;
70667;SDS011;58242;51.250;-1.118;2022-09-01T15:13:54;3.55;;;2.85;;
70667;SDS011;58242;51.250;-1.118;2022-09-01T15:16:21;5.78;;;2.92;;
70667;SDS011;58242;51.250;-1.118;2022-09-01T15:18:47;3.13;;;2.90;;
70667;SDS011;58242;51.250;-1.118;2022-09-01T15:21:23;2.28;;;2.08;;
70667;SDS011;58242;51.250;-1.118;2022-09-01T15:23:50;1.80;;;1.70;;
70667;SDS011;58242;51.250;-1.118;2022-09-01T15:26:18;2.67;;;2.45;;
70667;SDS011;58242;51.250;-1.118;2022-09-01T15:28:44;2.28;;;2.13;;
70667;SDS011;58242;51.250;-1.118;2022-09-01T15:31:12;3.67;;;2.65;;
70667;SDS011;58242;51.250;-1.118;2022-09-01T15:33:38;3.88;;;2.92;;
70667;SDS011;58242;51.250;-1.118;2022-09-01T15:36:05;3.20;;;2.50;;
70667;SDS011;58242;51.250;-1.118;2022-09-01T15:38:30;2.72;;;2.53;;
70667;SDS011;58242;51.250;-1.118;2022-09-01T15:40:56;2.58;;;2.40;;
70667;SDS011;58242;51.250;-1.118;2022-09-01T15:43:22;3.33;;;2.55;;
70667;SDS011;58242;51.250;-1.118;2022-09-01T15:45:47;5.63;;;2.60;;
70667;SDS011;58242;51.250;-1.118;2022-09-01T15:48:13;8.00;;;3.38;;
70667;SDS011;58242;51.250;-1.118;2022-09-01T15:50:38;2.97;;;2.78;;
70667;SDS011;58242;51.250;-1.118;2022-09-01T15:53:04;3.05;;;2.85;;
70667;SDS011;58242;51.250;-1.118;2022-09-01T15:55:42;2.85;;;2.55;;
70667;SDS011;58242;51.250;-1.118;2022-09-01T15:58:09;3.92;;;3.08;;
70667;SDS011;58242;51.250;-1.118;2022-09-01T16:00:36;4.03;;;2.70;;
70667;SDS011;58242;51.250;-1.118;2022-09-01T16:03:03;5.05;;;3.10;;
70667;SDS011;58242;51.250;-1.118;2022-09-01T16:05:28;2.85;;;2.65;;
70667;SDS011;58242;51.250;-1.118;2022-09-01T16:07:55;5.20;;;2.85;;
70667;SDS011;58242;51.250;-1.118;2022-09-01T16:10:21;3.20;;;2.92;;
70667;SDS011;58242;51.250;-1.118;2022-09-01T16:12:47;4.05;;;2.63;;